• Join FlightAware (Why Join?)
  • Login
  • US Flag 
Rudolph Flight #1: Arrived! 
02:08PM EST


 

Airport Tracker/Info


-or-


 

Live Flight TrackerFlight Track Log ✈ GEC8171 ✈ 01-Jul-2013 ✈ KATL - EDDF / FRA

Flight Track Log - Related Links

Times and Time Zones

All times are in EDT time to prevent confusion due to time zone crossing. See the GEC8171 flight status page for this flight to view local times or setup timezone preferences in your user account.

Time Position Orientation Groundspeed Altitude Reporting Facility
EDT Latitude Longitude Course Direction KTS MPH feet Rate Location/Type
04:09AM 33.6260 -84.4290 253° West 2 2  Level FlightAware
04:11AM 33.6270 -84.4290 360° North 2 2 60 Level FlightAware
04:14AM 33.8472 -84.1696 73° East  Level Estimated
04:14AM 33.6270 -84.4280 73° East  Level FlightAware
04:16AM 33.6270 -84.4280 73° East 21 24 120 Level FlightAware
04:18AM 33.6310 -84.4300 337° Northwest 17 20 180 Level FlightAware
04:19AM 33.6310 -84.4310 270° West 23 26 240 Level FlightAware
04:19AM 33.6310 -84.4340 270° West 32 37 300 Level FlightAware
04:20AM 33.6310 -84.4370 270° West 15 17 300 Level FlightAware
04:20AM 33.6310 -84.4390 270° West 16 18 360 Level FlightAware
04:21AM 33.6310 -84.4410 270° West 24 28 420 Level FlightAware
04:21AM 33.6310 -84.4420 270° West 26 30 480 Level FlightAware
04:21AM 33.6320 -84.4420 360° North 26 30 480 Level FlightAware
04:21AM 33.6330 -84.4420 360° North 28 32 540 Level FlightAware
04:22AM 33.6330 -84.4440 270° West 30 35 600 Level FlightAware
04:22AM 33.6340 -84.4450 320° Northwest 31 36 780 Level FlightAware
04:23AM 33.6340 -84.4470 270° West 26 30 840 Level FlightAware
04:23AM 33.6340 -84.4480 270° West 32 37 1,200 Level FlightAware
04:23AM 33.6350 -84.4470 40° Northeast 33 38 1,500 Level FlightAware
04:24AM 33.6350 -84.4400 90° East 110 127 1,800 Level FlightAware
04:24AM 33.6350 -84.4130 90° East 178 205 1,700 2,580 Climbing FlightAware
04:25AM 33.6360 -84.3830 88° East 216 249 2,500 1,440 Climbing FlightAware
04:25AM 33.6380 -84.3430 87° East 271 312 3,100 1,680 Climbing FlightAware
04:25AM 33.6440 -84.3260 67° East 281 323 3,700 3,900 Climbing FlightAware
04:26AM 33.6610 -84.2870 62° Northeast 281 323 5,700 4,140 Climbing FlightAware
04:26AM 33.6780 -84.2480 62° Northeast 288 331 7,600 3,840 Climbing FlightAware
04:27AM 33.6970 -84.2070 61° Northeast 302 348 9,300 3,240 Climbing FlightAware
04:27AM 33.7280 -84.1410 61° Northeast 338 389 11,500 2,520 Climbing FlightAware
04:28AM 33.7620 -84.0720 59° Northeast 389 448 12,900 2,280 Climbing FlightAware
04:29AM 33.8040 -83.9830 60° Northeast 432 497 14,700 2,640 Climbing FlightAware
04:29AM 33.8430 -83.8980 61° Northeast 454 522 16,600 2,160 Climbing FlightAware
04:30AM 33.8570 -83.8670 61° Northeast 460 529 17,300 2,820 Climbing FlightAware
04:31AM 33.9250 -83.7230 60° Northeast 483 556 20,300 3,300 Climbing FlightAware
04:31AM 33.9820 -83.6330 53° Northeast 495 570 22,200 2,340 Climbing FlightAware
04:32AM 34.0400 -83.5410 53° Northeast 516 594 23,600 1,980 Climbing FlightAware
04:33AM 34.0988 -83.4468 53° Northeast 530 610 24,900 2,160 Climbing FlightAware ADS-B
04:34AM 34.1700 -83.3330 53° Northeast 538 619 26,800 2,100 Climbing FlightAware
04:34AM 34.2310 -83.2360 53° Northeast 545 627 28,100 2,100 Climbing FlightAware
04:35AM 34.2822 -83.1533 53° Northeast 548 631 29,400 2,220 Climbing FlightAware ADS-B
04:35AM 34.3340 -83.0700 53° Northeast 551 634 30,600 1,860 Climbing FlightAware ADS-B
04:36AM 34.3798 -82.9957 53° Northeast 557 641 31,400 1,920 Climbing FlightAware ADS-B
04:36AM 34.4317 -82.9120 53° Northeast 557 641 32,700 2,580 Climbing FlightAware ADS-B
04:37AM 34.4783 -82.8366 53° Northeast 537 618 34,200 1,920 Climbing FlightAware ADS-B
04:37AM 34.5240 -82.7629 53° Northeast 543 625 34,700 1,200 Climbing FlightAware ADS-B
04:38AM 34.5942 -82.6486 53° Northeast 543 625 35,800 1,260 Climbing FlightAware ADS-B
04:39AM 34.6416 -82.5719 53° Northeast 538 619 36,400 1,020 Climbing FlightAware ADS-B
04:39AM 34.6869 -82.4982 53° Northeast 536 617 36,900 540 Climbing FlightAware ADS-B
04:40AM 34.7315 -82.4249 53° Northeast 537 618 37,000 60 Climbing FlightAware ADS-B
04:40AM 34.7755 -82.3523 54° Northeast 539 620 37,000  Level FlightAware ADS-B
04:41AM 34.8315 -82.2605 53° Northeast 537 618 37,000  Level FlightAware ADS-B
04:42AM 34.9065 -82.1371 53° Northeast 536 617 37,000  Level FlightAware ADS-B
04:42AM 34.9516 -82.0624 54° Northeast 537 618 37,000  Level FlightAware ADS-B
04:43AM 34.9995 -81.9831 54° Northeast 538 619 37,000  Level FlightAware ADS-B
04:43AM 35.0265 -81.9395 53° Northeast 542 624 37,000  Level FlightAware ADS-B
04:43AM 35.0505 -81.9069 48° Northeast 546 628 37,000  Level FlightAware ADS-B
04:44AM 35.1059 -81.8430 43° Northeast 547 629 37,000  Level FlightAware ADS-B
04:44AM 35.1612 -81.7786 44° Northeast 550 633 37,000  Level FlightAware ADS-B
04:45AM 35.2162 -81.7139 44° Northeast 552 635 37,000  Level FlightAware ADS-B
04:45AM 35.2737 -81.6464 44° Northeast 555 639 37,000  Level FlightAware ADS-B
04:46AM 35.3303 -81.5793 44° Northeast 555 639 37,000 60 Level FlightAware ADS-B
04:46AM 35.3866 -81.5134 44° Northeast 555 639 37,100  Climbing FlightAware ADS-B
04:47AM 35.4424 -81.4477 44° Northeast 555 639 37,000 -120 Descending FlightAware ADS-B
04:47AM 35.4980 -81.3819 44° Northeast 554 638 37,000  Level FlightAware ADS-B
04:48AM 35.5533 -81.3163 44° Northeast 554 638 37,000  Level FlightAware ADS-B
04:48AM 35.6093 -81.2502 44° Northeast 554 638 37,000  Level FlightAware ADS-B
04:49AM 35.6685 -81.1799 44° Northeast 554 638 37,000  Level FlightAware ADS-B
04:49AM 35.7238 -81.1140 44° Northeast 556 640 37,000  Level FlightAware ADS-B
04:50AM 35.8130 -81.0070 44° Northeast 557 641 37,000  Level FlightAware
04:51AM 35.8647 -80.9459 44° Northeast 556 640 37,000  Level FlightAware ADS-B
04:52AM 35.9883 -80.7974 44° Northeast 556 640 37,000  Level FlightAware ADS-B
04:52AM 36.0380 -80.7380 44° Northeast 559 643 37,000 60 Level FlightAware
04:53AM 36.1110 -80.6500 44° Northeast 559 643 37,100 60 Climbing FlightAware
04:54AM 36.2190 -80.5190 44° Northeast 554 638 37,100  Level FlightAware
04:55AM 36.3150 -80.4040 44° Northeast 554 638 37,100 -120 Level FlightAware
04:55AM 36.1530 -80.5980 224° Southwest 552 635 37,000 -120 Descending FlightAware
04:56AM 36.0780 -80.6910 225° Southwest 552 635 37,000  Level FlightAware
04:57AM 36.0210 -80.7610 225° Southwest 552 635 37,000  Level FlightAware
04:57AM 35.9480 -80.8520 225° Southwest 552 635 37,000  Level FlightAware
04:58AM 36.6280 -80.0180 44° Northeast 37,000 60 Level FlightAware
04:59AM 36.7410 -79.8780 45° Northeast 550 633 37,100 60 Climbing FlightAware
04:59AM 36.8050 -79.7990 45° Northeast 545 627 37,100 -120 Level FlightAware
05:00AM 36.8920 -79.6910 45° Northeast 543 625 37,000 -120 Descending FlightAware
05:01AM 36.9720 -79.5910 45° Northeast 539 620 37,000  Level FlightAware
05:02AM 37.0740 -79.4640 45° Northeast 532 612 37,000  Level FlightAware
05:03AM 37.1490 -79.3690 45° Northeast 530 610 37,000  Level FlightAware
05:03AM 37.2210 -79.2780 45° Northeast 528 608 37,000  Level FlightAware
05:04AM 37.2950 -79.1770 47° Northeast 536 617 37,000  Level FlightAware
05:04AM 37.3350 -79.1210 48° Northeast 538 619 37,000 60 Level FlightAware
05:05AM 37.4030 -79.0260 48° Northeast 543 625 37,100 60 Climbing FlightAware
05:06AM 37.4820 -78.9150 48° Northeast 543 625 37,100 -60 Level FlightAware
05:07AM 37.6110 -78.7310 48° Northeast 538 619 37,000 -60 Descending FlightAware
05:08AM 37.6870 -78.6230 48° Northeast 533 613 37,000  Level FlightAware
05:09AM 37.7620 -78.5160 48° Northeast 529 609 37,000  Level FlightAware
05:09AM 37.8300 -78.4170 49° Northeast 527 606 37,000  Level FlightAware
05:10AM 37.8980 -78.3200 48° Northeast 530 610 37,000  Level FlightAware
05:10AM 37.9131 -78.2979 49° Northeast 531 611 37,000  Level FlightAware ADS-B
05:11AM 37.9643 -78.2237 49° Northeast 536 617 37,000  Level FlightAware ADS-B
05:11AM 37.9873 -78.1914 48° Northeast 539 620 37,000  Level FlightAware ADS-B
05:11AM 38.0127 -78.1609 43° Northeast 543 625 37,000 180 Level FlightAware ADS-B
05:12AM 38.0484 -78.1264 37° Northeast 547 629 37,100 120 Climbing FlightAware ADS-B
05:12AM 38.1133 -78.0757 32° Northeast 549 632 37,100  Level FlightAware ADS-B
05:13AM 38.1787 -78.0244 32° Northeast 548 631 37,100  Level FlightAware ADS-B
05:13AM 38.2451 -77.9724 32° Northeast 547 629 37,100 -120 Level FlightAware ADS-B
05:14AM 38.3110 -77.9209 32° Northeast 545 627 37,000 -120 Descending FlightAware ADS-B
05:14AM 38.3759 -77.8704 31° Northeast 543 625 37,000  Level FlightAware ADS-B
05:15AM 38.4441 -77.8169 32° Northeast 542 624 37,000  Level FlightAware ADS-B
05:15AM 38.5086 -77.7664 31° Northeast 541 623 37,000  Level FlightAware ADS-B
05:16AM 38.5783 -77.7115 32° Northeast 542 624 37,000  Level FlightAware ADS-B
05:16AM 38.6432 -77.6601 32° Northeast 543 625 37,000  Level FlightAware ADS-B
05:17AM 38.7091 -77.6081 32° Northeast 543 625 37,000 60 Level FlightAware ADS-B
05:17AM 38.7751 -77.5558 32° Northeast 545 627 37,100 60 Climbing FlightAware ADS-B
05:18AM 38.8407 -77.5036 32° Northeast 545 627 37,100 -120 Level FlightAware ADS-B
05:18AM 38.9055 -77.4522 32° Northeast 544 626 37,000 -120 Descending FlightAware ADS-B
05:19AM 38.9713 -77.3998 32° Northeast 544 626 37,000  Level FlightAware ADS-B
05:19AM 39.0367 -77.3479 32° Northeast 543 625 37,000  Level FlightAware ADS-B
05:20AM 39.1005 -77.2968 32° Northeast 541 623 37,000  Level FlightAware ADS-B
05:20AM 39.1645 -77.2452 32° Northeast 540 621 37,000  Level FlightAware ADS-B
05:21AM 39.2281 -77.1942 32° Northeast 539 620 37,000  Level FlightAware ADS-B
05:21AM 39.2917 -77.1428 32° Northeast 537 618 37,000  Level FlightAware ADS-B
05:22AM 39.3547 -77.0918 32° Northeast 536 617 37,000  Level FlightAware ADS-B
05:22AM 39.4181 -77.0406 32° Northeast 535 616 37,000  Level FlightAware ADS-B
05:23AM 39.4818 -76.9890 32° Northeast 533 613 37,000  Level FlightAware ADS-B
05:23AM 39.5455 -76.9376 32° Northeast 534 615 37,000  Level FlightAware ADS-B
05:24AM 39.6090 -76.8870 32° Northeast 536 617 37,000  Level FlightAware ADS-B
05:24AM 39.6732 -76.8358 32° Northeast 537 618 37,000  Level FlightAware ADS-B
05:25AM 39.7379 -76.7838 32° Northeast 538 619 37,000  Level FlightAware ADS-B
05:25AM 39.8014 -76.7326 32° Northeast 540 621 37,000  Level FlightAware ADS-B
05:26AM 39.8660 -76.6806 32° Northeast 541 623 37,000  Level FlightAware ADS-B
05:26AM 39.9296 -76.6292 32° Northeast 541 623 37,000  Level FlightAware ADS-B
05:27AM 39.9964 -76.5751 32° Northeast 543 625 37,000 60 Level FlightAware ADS-B
05:27AM 40.0613 -76.5224 32° Northeast 545 627 37,100 60 Climbing FlightAware ADS-B
05:28AM 40.1253 -76.4700 32° Northeast 547 629 37,100  Level FlightAware ADS-B
05:28AM 40.1897 -76.4175 32° Northeast 548 631 37,100 -120 Level FlightAware ADS-B
05:29AM 40.2548 -76.3644 32° Northeast 550 633 37,000 -120 Descending FlightAware ADS-B
05:29AM 40.3198 -76.3112 32° Northeast 551 634 37,000  Level FlightAware ADS-B
05:30AM 40.3847 -76.2577 32° Northeast 552 635 37,000  Level FlightAware ADS-B
05:30AM 40.4496 -76.2045 32° Northeast 551 634 37,000  Level FlightAware ADS-B
05:31AM 40.5157 -76.1500 32° Northeast 552 635 37,000  Level FlightAware ADS-B
05:31AM 40.5813 -76.0960 32° Northeast 552 635 37,000  Level FlightAware ADS-B
05:32AM 40.6467 -76.0416 32° Northeast 552 635 37,000  Level FlightAware ADS-B
05:32AM 40.7115 -75.9875 32° Northeast 551 634 37,000  Level FlightAware ADS-B
05:33AM 40.7770 -75.9327 32° Northeast 551 634 37,000  Level FlightAware ADS-B
05:33AM 40.8413 -75.8788 32° Northeast 551 634 37,000  Level FlightAware ADS-B
05:34AM 40.9059 -75.8249 32° Northeast 550 633 37,000  Level FlightAware ADS-B
05:34AM 40.9714 -75.7701 32° Northeast 550 633 37,000  Level FlightAware ADS-B
05:35AM 41.0375 -75.7147 32° Northeast 551 634 37,000  Level FlightAware ADS-B
05:35AM 41.1019 -75.6605 32° Northeast 551 634 37,000  Level FlightAware ADS-B
05:36AM 41.1671 -75.6050 33° Northeast 552 635 37,000  Level FlightAware ADS-B
05:36AM 41.2341 -75.5485 32° Northeast 552 635 37,000  Level FlightAware ADS-B
05:37AM 41.2985 -75.4936 33° Northeast 554 638 37,000  Level FlightAware ADS-B
05:37AM 41.3635 -75.4382 33° Northeast 553 636 37,000  Level FlightAware ADS-B
05:38AM 41.4289 -75.3824 33° Northeast 555 639 37,000  Level FlightAware ADS-B
05:38AM 41.4935 -75.3271 33° Northeast 555 639 37,000  Level FlightAware ADS-B
05:39AM 41.5587 -75.2713 33° Northeast 556 640 37,000  Level FlightAware ADS-B
05:39AM 41.6239 -75.2151 33° Northeast 557 641 37,000  Level FlightAware ADS-B
05:40AM 41.6888 -75.1594 33° Northeast 557 641 37,000  Level FlightAware ADS-B
05:40AM 41.7549 -75.1022 33° Northeast 558 642 37,000  Level FlightAware ADS-B
05:41AM 41.8203 -75.0454 33° Northeast 560 644 37,000 60 Level FlightAware ADS-B
05:41AM 41.8854 -74.9893 33° Northeast 559 643 37,100 60 Climbing FlightAware ADS-B
05:42AM 41.9501 -74.9328 33° Northeast 556 640 37,100 -120 Level FlightAware ADS-B
05:42AM 42.0148 -74.8761 33° Northeast 552 635 37,000 -120 Descending FlightAware ADS-B
05:43AM 42.0788 -74.8203 33° Northeast 550 633 37,000  Level FlightAware ADS-B
05:43AM 42.1425 -74.7646 33° Northeast 548 631 37,000  Level FlightAware ADS-B
05:44AM 42.2342 -74.6837 33° Northeast 550 633 37,000  Level FlightAware ADS-B
05:45AM 42.2987 -74.6273 33° Northeast 552 635 37,000  Level FlightAware ADS-B
05:45AM 42.3647 -74.5689 33° Northeast 551 634 37,000  Level FlightAware ADS-B
05:46AM 42.4349 -74.5064 33° Northeast 552 635 37,000  Level FlightAware ADS-B
05:46AM 42.4997 -74.4489 33° Northeast 553 636 37,000  Level FlightAware ADS-B
05:47AM 42.5630 -74.3930 33° Northeast 553 636 37,000 60 Level FlightAware
05:48AM 42.6587 -74.2819 40° Northeast 556 640 37,100  Climbing FlightAware ADS-B
05:48AM 42.7160 -74.2070 44° Northeast 555 639 37,000 -180 Descending FlightAware
05:48AM 42.7409 -74.1751 43° Northeast 556 640 37,000  Level FlightAware ADS-B
05:49AM 42.8550 -74.0250 44° Northeast 553 636 37,000  Level FlightAware
05:50AM 42.9290 -73.9260 44° Northeast 553 636 37,000  Level FlightAware
05:51AM 43.0010 -73.8310 44° Northeast 552 635 37,000  Level FlightAware
05:51AM 43.0570 -73.7570 44° Northeast 552 635 37,000  Level FlightAware
05:52AM 43.1490 -73.6330 44° Northeast 552 635 37,000  Level FlightAware
05:53AM 43.2180 -73.5420 44° Northeast 545 627 37,000  Level FlightAware
05:53AM 43.3060 -73.4240 44° Northeast 545 627 37,000  Level FlightAware
05:54AM 43.3860 -73.3160 44° Northeast 549 632 37,000  Level FlightAware
05:55AM 43.4580 -73.2170 45° Northeast 548 631 37,000  Level FlightAware
05:56AM 43.5390 -73.1070 45° Northeast 548 631 37,000  Level FlightAware
05:56AM 43.6110 -73.0080 45° Northeast 547 629 37,000  Level FlightAware
05:57AM 43.6600 -72.9410 45° Northeast 548 631 37,000  Level FlightAware
05:57AM 43.7350 -72.8390 44° Northeast 550 633 37,000  Level FlightAware
05:58AM 43.8090 -72.7370 45° Northeast 552 635 37,000  Level FlightAware
05:59AM 43.8620 -72.6630 45° Northeast 553 636 37,000  Level FlightAware
05:59AM 43.9340 -72.5640 45° Northeast 555 639 37,000 60 Level FlightAware
06:00AM 44.0350 -72.4220 45° Northeast 557 641 37,100 60 Climbing FlightAware
06:01AM 44.0870 -72.3500 45° Northeast 558 642 37,100 -60 Level FlightAware
06:02AM 44.2180 -72.1660 45° Northeast 557 641 37,000 -60 Descending FlightAware
06:03AM 44.2980 -72.0530 45° Northeast 556 640 37,000  Level FlightAware
06:03AM 44.3740 -71.9450 45° Northeast 555 639 37,000  Level FlightAware
06:04AM 44.4460 -71.8410 46° Northeast 554 638 37,000  Level FlightAware
06:05AM 44.5190 -71.7380 45° Northeast 555 639 37,000  Level FlightAware
06:06AM 44.6260 -71.5820 46° Northeast 555 639 37,000  Level FlightAware
06:06AM 44.6840 -71.5000 45° Northeast 553 636 37,000  Level FlightAware
06:08AM 44.8870 -71.2050 46° Northeast 555 639 37,000  Level FlightAware
06:09AM 44.9530 -71.1080 46° Northeast 555 639 37,000  Level FlightAware
06:09AM 45.0280 -70.9980 46° Northeast 557 641 37,000  Level FlightAware
06:10AM 45.0950 -70.8980 46° Northeast 559 643 37,000  Level FlightAware
06:11AM 45.1690 -70.7900 46° Northeast 559 643 37,000 60 Level FlightAware
06:11AM 45.2230 -70.7090 47° Northeast 561 646 37,100 60 Climbing FlightAware
06:12AM 45.3000 -70.5940 46° Northeast 564 649 37,100  Level FlightAware
06:12AM 45.3540 -70.5130 46° Northeast 564 649 37,100 -120 Level FlightAware
06:13AM 45.4260 -70.4060 46° Northeast 564 649 37,000 -120 Descending FlightAware
06:14AM 45.4970 -70.2980 47° Northeast 566 651 37,000  Level FlightAware
06:14AM 45.5600 -70.2020 47° Northeast 566 651 37,000  Level FlightAware
06:18AM 45.9080 -69.6680 47° Northeast 567 652 37,000  Level FlightAware
06:19AM 46.0180 -69.4990 47° Northeast 564 649 37,000  Level FlightAware
06:20AM 46.1160 -69.3470 47° Northeast 563 648 37,000  Level FlightAware
06:20AM 46.1820 -69.2430 47° Northeast 564 649 37,000  Level FlightAware
06:21AM 46.2430 -69.1470 47° Northeast 564 649 37,000  Level FlightAware
06:21AM 46.3130 -69.0350 48° Northeast 565 650 37,000  Level FlightAware
06:22AM 46.3830 -68.9240 48° Northeast 564 649 37,000  Level FlightAware
06:23AM 46.4530 -68.8130 48° Northeast 564 649 37,000  Level FlightAware
06:24AM 46.5320 -68.6860 48° Northeast 564 649 37,000  Level FlightAware
06:24AM 46.5810 -68.6080 48° Northeast 564 649 37,000  Level FlightAware
06:25AM 46.6680 -68.4680 48° Northeast 565 650 37,000  Level FlightAware
06:26AM 46.7980 -68.2570 48° Northeast 566 651 37,000  Level FlightAware
06:27AM 46.8400 -68.1890 48° Northeast 566 651 37,000  Level FlightAware
06:27AM 46.9230 -68.0530 48° Northeast 570 656 37,000  Level FlightAware
06:28AM 46.9950 -67.9350 48° Northeast 573 659 37,000 60 Level FlightAware
06:28AM 47.0460 -67.8500 49° Northeast 573 659 37,100 60 Climbing FlightAware
06:29AM 47.1080 -67.7480 48° Northeast 575 662 37,100 -60 Level FlightAware
06:31AM 47.2710 -67.4750 49° Northeast 573 659 37,000 -60 Descending FlightAware
06:31AM 47.3590 -67.3290 48° Northeast 573 659 37,000  Level FlightAware
06:32AM 47.4180 -67.1950 57° Northeast 579 666 37,000  Level FlightAware
06:33AM 47.4800 -67.0580 56° Northeast 579 666 37,000  Level FlightAware
06:34AM 47.5570 -66.8900 56° Northeast 579 666 37,000  Level FlightAware
06:35AM 47.6480 -66.6890 56° Northeast 579 666 37,000  Level FlightAware
06:36AM 47.7250 -66.5200 56° Northeast 579 666 37,000  Level FlightAware
06:37AM 47.7860 -66.3860 56° Northeast 579 666 37,000  Level FlightAware
06:37AM 47.8180 -66.3150 56° Northeast 579 666 37,000  Level FlightAware
06:39AM 47.9090 -66.1130 56° Northeast 579 666 37,000  Level FlightAware
06:40AM 47.9870 -65.9410 56° Northeast 579 666 37,000  Level FlightAware
06:41AM 48.0630 -65.7710 56° Northeast 579 666 37,000  Level FlightAware
06:42AM 48.1400 -65.6020 56° Northeast 579 666 37,000  Level FlightAware
06:43AM 48.1500 -64.9333 56° Northeast 590 679 37,000  Level Gander Center
06:43AM 48.1833 -64.8167 67° East 580 667 37,000  Level Moncton Center
06:44AM 48.2500 -64.6000 65° Northeast 590 679 37,000  Level Moncton Center
06:45AM 48.3000 -64.4500 63° Northeast 590 679 37,000  Level Gander Center
06:46AM 48.3833 -64.2000 63° Northeast 590 679 37,000  Level Gander Center
06:47AM 48.4500 -64.0000 63° Northeast 590 679 37,000  Level Gander Center
06:48AM 48.5167 -63.7500 68° East 590 679 37,000  Level Gander Center
06:49AM 48.5833 -63.5333 65° Northeast 590 679 37,000  Level Gander Center
06:50AM 48.6500 -63.3000 67° East 590 679 37,000  Level Gander Center
06:51AM 48.7167 -63.0833 65° Northeast 590 679 37,000  Level Gander Center
06:52AM 48.7833 -62.8500 66° East 590 679 37,000  Level Gander Center
06:53AM 48.8333 -62.6333 71° East 600 690 37,000  Level Gander Center
06:54AM 48.9333 -62.4000 57° Northeast 590 679 37,000  Level Gander Center
06:55AM 48.9833 -62.1667 72° East 600 690 37,000  Level Gander Center
06:56AM 49.0500 -61.9500 65° Northeast 590 679 37,000  Level Gander Center
06:58AM 49.1667 -61.5333 67° East 600 690 37,000  Level Gander Center
06:58AM 49.2000 -61.4167 66° East 580 667 37,000 -120 Level Moncton Center
06:59AM 49.2667 -61.1833 66° East 590 679 36,900  Descending Moncton Center
07:05AM 49.6200 -59.8940 66° East 599 689 37,000  Climbing FlightAware
07:05AM 49.6540 -59.7660 68° East 599 689 37,000  Level FlightAware
07:06AM 49.7070 -59.5570 69° East 596 686 37,000  Level FlightAware
07:07AM 49.7380 -59.4360 68° East 597 687 37,000  Level FlightAware
07:07AM 49.7750 -59.2870 69° East 597 687 37,000  Level FlightAware
07:08AM 49.8290 -59.0800 68° East 598 688 37,000  Level FlightAware
07:11AM 49.9930 -58.4580 67° East 37,100  Climbing FlightAware
07:12AM 50.0490 -58.2590 66° East 604 695 37,100 -60 Level FlightAware
07:12AM 50.1080 -58.0490 66° East 602 693 37,000 -120 Descending FlightAware
07:13AM 50.1510 -57.8920 67° East 601 692 37,000  Level FlightAware
07:14AM 50.1940 -57.7410 66° East 601 692 37,000  Level FlightAware
07:14AM 50.2290 -57.6120 67° East 600 690 37,000  Level FlightAware
07:15AM 50.2880 -57.3960 67° East 601 692 37,000  Level FlightAware
07:16AM 50.3390 -57.2100 67° East 602 693 37,000 60 Level FlightAware
07:16AM 50.3760 -57.0720 67° East 604 695 37,100 60 Climbing FlightAware
07:17AM 50.4200 -56.9080 67° East 605 696 37,100 -120 Level FlightAware
07:18AM 50.4630 -56.7460 67° East 606 697 37,000 -120 Descending FlightAware
07:18AM 50.4940 -56.6280 68° East 607 699 37,000  Level FlightAware
07:19AM 50.5420 -56.4470 67° East 607 699 37,000  Level FlightAware
07:20AM 50.5870 -56.2760 67° East 604 695 37,000  Level FlightAware
07:20AM 50.6290 -56.1110 68° East 603 694 37,000  Level FlightAware
07:21AM 50.6700 -55.9500 68° East 602 693 37,000  Level FlightAware
07:22AM 50.7010 -55.8300 68° East 602 693 37,000  Level FlightAware
07:22AM 50.7440 -55.6630 68° East 602 693 37,000  Level FlightAware
07:23AM 50.7730 -55.5440 69° East 600 690 37,000  Level FlightAware
07:23AM 50.8130 -55.3860 68° East 600 690 37,000  Level FlightAware
07:24AM 50.8570 -55.2090 68° East 600 690 37,000  Level FlightAware
07:25AM 50.9090 -54.9970 69° East 599 689 37,000  Level FlightAware
07:26AM 50.9560 -54.8030 69° East 599 689 37,000  Level FlightAware
07:27AM 50.9990 -54.6280 69° East 599 689 37,000  Level FlightAware
07:27AM 51.0530 -54.4020 69° East 599 689 37,000  Level FlightAware
07:28AM 51.1020 -54.1940 69° East 599 689 37,000  Level FlightAware
07:29AM 51.1500 -53.9900 69° East 599 689 37,000  Level FlightAware
07:31AM 51.2320 -53.6370 70° East 599 689 37,000  Level FlightAware
07:31AM 51.2610 -53.5090 70° East 599 689 37,000  Level FlightAware
07:32AM 51.3080 -53.3050 70° East 597 687 37,000  Level FlightAware
07:32AM 51.3300 -53.2060 70° East 597 687 37,000  Level FlightAware
07:33AM 51.3790 -52.9900 70° East 597 687 37,000  Level FlightAware
07:34AM 51.4280 -52.7750 70° East 597 687 37,000  Level FlightAware
07:35AM 51.4570 -52.6470 70° East 597 687 37,000  Level FlightAware
07:36AM 51.4860 -52.5200 70° East 597 687 37,000  Level FlightAware
07:36AM 51.5150 -52.3920 70° East 597 687 37,000  Level FlightAware
07:37AM 51.5450 -52.2610 70° East 597 687 37,000  Level FlightAware
07:38AM 51.5830 -52.0910 70° East 597 687 37,000  Level FlightAware
07:38AM 51.6220 -51.9200 70° East 597 687 37,000  Level FlightAware
07:39AM 51.6500 -51.7920 71° East 597 687 37,000  Level FlightAware
07:40AM 51.6870 -51.6280 70° East 597 687 37,000  Level FlightAware
07:40AM 51.7070 -51.5390 70° East 597 687 37,000  Level FlightAware
07:41AM 51.7560 -51.3220 70° East 597 687 37,000  Level FlightAware
07:42AM 51.8333 -50.7333 70° East 600 690 37,000  Level Gander Center
07:43AM 51.8833 -50.5000 71° East 600 690 37,000  Level Gander Center
07:44AM 51.9500 -50.2167 69° East 600 690 37,000  Level Gander Center
07:45AM 51.9667 -50.0500 81° East 590 679 37,000  Level Gander Center
07:47AM 52.0834 -49.6678 68° East  Level FlightAware Approximate
07:54AM 52.4722 -48.0493 68° East  Level FlightAware Approximate
07:55AM 52.5259 -47.8158 69° East  Level FlightAware Approximate
07:56AM 52.5792 -47.5817 69° East  Level FlightAware Approximate
07:57AM 52.6320 -47.3470 70° East  Level FlightAware Approximate
07:58AM 52.6843 -47.1118 70° East  Level FlightAware Approximate
07:59AM 52.7362 -46.8760 70° East  Level FlightAware Approximate
08:00AM 52.7876 -46.6396 70° East  Level FlightAware Approximate
08:01AM 52.8385 -46.4027 70° East  Level FlightAware Approximate
08:02AM 52.8890 -46.1653 71° East  Level FlightAware Approximate
08:03AM 52.9389 -45.9273 71° East  Level FlightAware Approximate
08:04AM 52.9884 -45.6887 71° East  Level FlightAware Approximate
08:05AM 53.0375 -45.4496 71° East  Level FlightAware Approximate
08:06AM 53.0860 -45.2100 71° East  Level FlightAware Approximate
08:07AM 53.1341 -44.9698 71° East  Level FlightAware Approximate
08:08AM 53.1817 -44.7291 72° East  Level FlightAware Approximate
08:09AM 53.2288 -44.4878 72° East  Level FlightAware Approximate
08:10AM 53.2754 -44.2461 72° East  Level FlightAware Approximate
08:11AM 53.3215 -44.0038 72° East  Level FlightAware Approximate
08:12AM 53.3671 -43.7609 72° East  Level FlightAware Approximate
08:13AM 53.4122 -43.5176 73° East  Level FlightAware Approximate
08:14AM 53.4568 -43.2738 73° East  Level FlightAware Approximate
08:15AM 53.5010 -43.0294 73° East  Level FlightAware Approximate
08:16AM 53.5446 -42.7845 73° East  Level FlightAware Approximate
08:17AM 53.5878 -42.5392 73° East  Level FlightAware Approximate
08:18AM 53.6304 -42.2933 74° East  Level FlightAware Approximate
08:19AM 53.6725 -42.0469 74° East  Level FlightAware Approximate
08:20AM 53.7141 -41.8000 74° East  Level FlightAware Approximate
08:21AM 53.7553 -41.5527 74° East  Level FlightAware Approximate
08:22AM 53.7959 -41.3049 74° East  Level FlightAware Approximate
08:23AM 53.8359 -41.0566 75° East  Level FlightAware Approximate
08:24AM 53.8755 -40.8078 75° East  Level FlightAware Approximate
08:25AM 53.9146 -40.5586 75° East  Level FlightAware Approximate
08:26AM 53.9531 -40.3089 75° East  Level FlightAware Approximate
08:27AM 53.9912 -40.0587 75° East  Level FlightAware Approximate
08:28AM 54.0080 -39.8025 86° East  Level FlightAware Approximate
08:29AM 54.0181 -39.5444 86° East  Level FlightAware Approximate
08:30AM 54.0276 -39.2862 86° East  Level FlightAware Approximate
08:31AM 54.0365 -39.0279 87° East  Level FlightAware Approximate
08:32AM 54.0448 -38.7695 87° East  Level FlightAware Approximate
08:33AM 54.0527 -38.5110 87° East  Level FlightAware Approximate
08:34AM 54.0599 -38.2524 87° East  Level FlightAware Approximate
08:35AM 54.0666 -37.9937 87° East  Level FlightAware Approximate
08:36AM 54.0728 -37.7349 88° East  Level FlightAware Approximate
08:37AM 54.0784 -37.4761 88° East  Level FlightAware Approximate
08:38AM 54.0834 -37.2171 88° East  Level FlightAware Approximate
08:39AM 54.0879 -36.9581 88° East  Level FlightAware Approximate
08:40AM 54.0918 -36.6991 88° East  Level FlightAware Approximate
08:41AM 54.0952 -36.4400 89° East  Level FlightAware Approximate
08:42AM 54.0980 -36.1809 89° East  Level FlightAware Approximate
08:43AM 54.1003 -35.9218 89° East  Level FlightAware Approximate
08:44AM 54.1020 -35.6626 89° East  Level FlightAware Approximate
08:45AM 54.1031 -35.4034 89° East  Level FlightAware Approximate
08:46AM 54.1037 -35.1442 90° East  Level FlightAware Approximate
08:47AM 54.1038 -34.8850 90° East  Level FlightAware Approximate
08:48AM 54.1032 -34.6258 90° East  Level FlightAware Approximate
08:49AM 54.1021 -34.3666 90° East  Level FlightAware Approximate
08:50AM 54.1005 -34.1075 91° East  Level FlightAware Approximate
08:51AM 54.0983 -33.8483 91° East  Level FlightAware Approximate
08:52AM 54.0956 -33.5892 91° East  Level FlightAware Approximate
08:53AM 54.0923 -33.3301 91° East  Level FlightAware Approximate
08:54AM 54.0884 -33.0711 91° East  Level FlightAware Approximate
08:55AM 54.0840 -32.8121 92° East  Level FlightAware Approximate
08:56AM 54.0790 -32.5532 92° East  Level FlightAware Approximate
08:57AM 54.0734 -32.2943 92° East  Level FlightAware Approximate
08:58AM 54.0674 -32.0355 92° East  Level FlightAware Approximate
08:59AM 54.0607 -31.7768 92° East  Level FlightAware Approximate
09:00AM 54.0535 -31.5182 93° East  Level FlightAware Approximate
09:01AM 54.0458 -31.2597 93° East  Level FlightAware Approximate
09:02AM 54.0375 -31.0012 93° East  Level FlightAware Approximate
09:03AM 54.0286 -30.7429 93° East  Level FlightAware Approximate
09:04AM 54.0192 -30.4847 93° East  Level FlightAware Approximate
09:05AM 54.0092 -30.2266 94° East  Level FlightAware Approximate
09:06AM 54.0013 -29.9687 86° East  Level FlightAware Approximate
09:07AM 54.0117 -29.7107 86° East  Level FlightAware Approximate
09:08AM 54.0215 -29.4526 86° East  Level FlightAware Approximate
09:09AM 54.0308 -29.1943 86° East  Level FlightAware Approximate
09:10AM 54.0395 -28.9360 87° East  Level FlightAware Approximate
09:11AM 54.0477 -28.6775 87° East  Level FlightAware Approximate
09:12AM 54.0553 -28.4190 87° East  Level FlightAware Approximate
09:13AM 54.0624 -28.1603 87° East  Level FlightAware Approximate
09:14AM 54.0689 -27.9016 87° East  Level FlightAware Approximate
09:15AM 54.0748 -27.6428 88° East  Level FlightAware Approximate
09:16AM 54.0802 -27.3839 88° East  Level FlightAware Approximate
09:17AM 54.0851 -27.1250 88° East  Level FlightAware Approximate
09:18AM 54.0894 -26.8660 88° East  Level FlightAware Approximate
09:19AM 54.0931 -26.6069 88° East  Level FlightAware Approximate
09:20AM 54.0963 -26.3479 89° East  Level FlightAware Approximate
09:21AM 54.0989 -26.0887 89° East  Level FlightAware Approximate
09:22AM 54.1009 -25.8296 89° East  Level FlightAware Approximate
09:23AM 54.1025 -25.5704 89° East  Level FlightAware Approximate
09:24AM 54.1034 -25.3112 90° East  Level FlightAware Approximate
09:25AM 54.1038 -25.0520 90° East  Level FlightAware Approximate
09:26AM 54.1036 -24.7928 90° East  Level FlightAware Approximate
09:27AM 54.1029 -24.5336 90° East  Level FlightAware Approximate
09:28AM 54.1016 -24.2744 90° East  Level FlightAware Approximate
09:29AM 54.0998 -24.0153 91° East  Level FlightAware Approximate
09:30AM 54.0974 -23.7561 91° East  Level FlightAware Approximate
09:31AM 54.0944 -23.4970 91° East  Level FlightAware Approximate
09:32AM 54.0909 -23.2380 91° East  Level FlightAware Approximate
09:33AM 54.0869 -22.9789 91° East  Level FlightAware Approximate
09:34AM 54.0822 -22.7200 92° East  Level FlightAware Approximate
09:35AM 54.0771 -22.4611 92° East  Level FlightAware Approximate
09:36AM 54.0714 -22.2022 92° East  Level FlightAware Approximate
09:37AM 54.0651 -21.9435 92° East  Level FlightAware Approximate
09:38AM 54.0582 -21.6848 92° East  Level FlightAware Approximate
09:39AM 54.0508 -21.4262 93° East  Level FlightAware Approximate
09:41AM 54.0293 -20.7630 93° East  Level FlightAware Approximate
09:43AM 54.0157 -20.3929 93° East  Level FlightAware Approximate
09:44AM 54.0055 -20.1348 94° East  Level FlightAware Approximate
09:45AM 53.9916 -19.8775 97° East  Level FlightAware Approximate
09:46AM 53.9735 -19.6208 97° East  Level FlightAware Approximate
09:47AM 53.9548 -19.3645 97° East  Level FlightAware Approximate
09:48AM 53.9356 -19.1083 97° East  Level FlightAware Approximate
09:49AM 53.9159 -18.8524 97° East  Level FlightAware Approximate
09:50AM 53.8956 -18.5967 98° East  Level FlightAware Approximate
09:51AM 53.8748 -18.3413 98° East  Level FlightAware Approximate
09:52AM 53.8534 -18.0862 98° East  Level FlightAware Approximate
09:53AM 53.8315 -17.8313 98° East  Level FlightAware Approximate
09:54AM 53.8091 -17.5767 98° East  Level FlightAware Approximate
09:55AM 53.7861 -17.3223 99° East  Level FlightAware Approximate
09:56AM 53.7626 -17.0682 99° East  Level FlightAware Approximate
09:57AM 53.7385 -16.8145 99° East  Level FlightAware Approximate
09:58AM 53.7139 -16.5610 99° East  Level FlightAware Approximate
09:59AM 53.6888 -16.3078 99° East  Level FlightAware Approximate
10:00AM 53.6632 -16.0549 100° East  Level FlightAware Approximate
10:01AM 53.6370 -15.8024 100° East  Level FlightAware Approximate
10:02AM 53.6102 -15.5501 100° East  Level FlightAware Approximate
10:03AM 53.5830 -15.2982 100° East  Level FlightAware Approximate
10:04AM 53.5552 -15.0466 100° East  Level FlightAware Approximate
10:05AM 53.5267 -14.7953 101° East  Level FlightAware Approximate
10:06AM 53.4977 -14.5445 101° East  Level FlightAware Approximate
10:07AM 53.4682 -14.2940 101° East  Level FlightAware Approximate
10:08AM 53.4381 -14.0438 101° East  Level FlightAware Approximate
10:09AM 53.4075 -13.7940 102° East  Level FlightAware Approximate
10:09AM 52.8220 -12.4010 102° East 527 606 39,000  Level FlightAware
10:09AM 52.8080 -12.2230 97° East 527 606 39,000  Level FlightAware
10:10AM 53.3765 -13.5445 102° East  Level FlightAware Approximate
10:10AM 52.7940 -12.0630 98° East 529 609 39,000  Level FlightAware
10:11AM 52.7790 -11.8800 98° East 533 613 39,000 60 Level FlightAware
10:11AM 52.7660 -11.7160 97° East 536 617 39,100 60 Climbing FlightAware
10:12AM 52.7500 -11.5340 98° East 536 617 39,100  Level FlightAware
10:13AM 52.7360 -11.3720 98° East 533 613 39,100 -120 Level FlightAware
10:13AM 52.7230 -11.2320 99° East 530 610 39,000 -120 Descending FlightAware
10:14AM 52.7070 -11.0600 99° East 526 605 39,000  Level FlightAware
10:15AM 52.6920 -10.8920 98° East 523 602 39,000  Level FlightAware
10:16AM 52.6780 -10.7380 98° East 520 598 39,000  Level FlightAware
10:16AM 52.6610 -10.5600 99° East 520 598 39,000  Level FlightAware
10:17AM 52.6450 -10.3950 99° East 521 600 39,000  Level FlightAware
10:18AM 52.6240 -10.1840 99° East 520 598 39,000  Level FlightAware
10:19AM 52.6090 -10.0330 99° East 520 598 39,000  Level FlightAware
10:19AM 52.5920 -9.8660 99° East 520 598 39,000  Level FlightAware
10:20AM 52.5740 -9.6870 99° East 520 598 39,000  Level FlightAware
10:21AM 52.5620 -9.5720 100° East 521 600 39,000  Level FlightAware
10:21AM 52.5440 -9.4030 100° East 521 600 39,000  Level FlightAware
10:22AM 52.5260 -9.2440 100° East 520 598 39,000  Level FlightAware
10:23AM 52.5100 -9.0920 100° East 517 595 39,000  Level FlightAware
10:23AM 52.4940 -8.9450 100° East 515 593 39,000  Level FlightAware
10:24AM 52.4760 -8.7730 100° East 515 593 39,000  Level FlightAware
10:25AM 52.4560 -8.5950 100° East 520 598 39,000  Level FlightAware
10:25AM 52.4380 -8.4410 101° East 521 600 39,000 60 Level FlightAware
10:26AM 52.4180 -8.2700 101° East 522 601 39,100 60 Climbing FlightAware
10:27AM 52.4000 -8.1160 101° East 520 598 39,100  Level FlightAware
10:27AM 52.3840 -7.9840 101° East 516 594 39,100 -120 Level FlightAware
10:28AM 52.3660 -7.8290 101° East 509 586 39,000 -120 Descending FlightAware
10:29AM 52.3450 -7.6620 102° East 508 585 39,000  Level FlightAware
10:30AM 52.3170 -7.4290 101° East 509 586 39,000  Level FlightAware
10:31AM 52.2840 -7.1630 101° East 513 590 39,000  Level FlightAware
10:32AM 52.2660 -7.0250 102° East 515 593 39,000  Level FlightAware
10:32AM 52.2460 -6.8670 102° East 516 594 39,000 60 Level FlightAware
10:33AM 52.2240 -6.6960 102° East 517 595 39,100  Climbing FlightAware
10:34AM 52.2060 -6.5620 102° East 517 595 39,000 -120 Descending FlightAware
10:34AM 52.1830 -6.3930 102° East 520 598 39,000 60 Level FlightAware
10:35AM 52.1600 -6.2180 102° East 520 598 39,100  Climbing FlightAware
10:36AM 52.1380 -6.0560 102° East 520 598 39,000 -120 Descending FlightAware
10:36AM 52.1200 -5.9240 102° East 519 597 39,000  Level FlightAware
10:37AM 52.0990 -5.7720 103° East 520 598 39,000  Level FlightAware
10:38AM 52.0790 -5.6030 101° East 517 595 39,000  Level FlightAware
10:38AM 52.0640 -5.4740 101° East 516 594 39,000  Level FlightAware
10:39AM 52.0440 -5.2960 100° East 515 593 39,000  Level FlightAware
10:40AM 52.0300 -5.1790 101° East 515 593 39,000  Level FlightAware
10:41AM 52.0060 -4.9780 101° East 514 592 39,000  Level FlightAware
10:41AM 51.9910 -4.8510 101° East 513 590 39,000  Level FlightAware
10:42AM 51.9720 -4.6930 101° East 513 590 39,000  Level FlightAware
10:42AM 51.9540 -4.5430 101° East 513 590 39,000  Level FlightAware
10:43AM 51.9310 -4.3590 101° East 512 589 39,000  Level FlightAware
10:44AM 51.9090 -4.1840 101° East 512 589 39,000  Level FlightAware
10:45AM 51.8830 -3.9840 102° East 516 594 39,000  Level FlightAware
10:46AM 51.8540 -3.7630 102° East 520 598 39,000  Level FlightAware
10:47AM 51.8330 -3.6010 102° East 522 601 39,000 60 Level FlightAware
10:47AM 51.8110 -3.4360 102° East 523 602 39,100  Climbing FlightAware
10:48AM 51.7920 -3.2940 102° East 523 602 39,000 -120 Descending FlightAware
10:49AM 51.7730 -3.1510 102° East 523 602 39,000  Level FlightAware
10:49AM 51.7510 -2.9970 103° East 520 598 39,000  Level FlightAware
10:50AM 51.7290 -2.8370 102° East 519 597 39,000  Level FlightAware
10:50AM 51.7231 -2.7868 101° East 519 597 39,000  Level FlightAware ADS-B
10:51AM 51.7121 -2.6695 99° East 519 597 39,000  Level FlightAware ADS-B
10:51AM 51.7004 -2.5436 98° East 519 597 39,000  Level FlightAware ADS-B
10:52AM 51.6859 -2.3870 98° East 518 596 39,000  Level FlightAware ADS-B
10:53AM 51.6744 -2.2659 99° East 518 596 39,000  Level FlightAware ADS-B
10:53AM 51.6634 -2.1519 99° East 518 596 39,000  Level FlightAware ADS-B
10:54AM 51.6522 -2.0365 99° East 518 596 39,000  Level FlightAware ADS-B
10:54AM 51.6411 -1.9216 99° East 518 596 39,000  Level FlightAware ADS-B
10:55AM 51.6294 -1.8047 99° East 518 596 39,000  Level FlightAware ADS-B
10:55AM 51.6175 -1.6877 99° East 519 597 39,000 60 Level FlightAware ADS-B
10:56AM 51.6059 -1.5730 99° East 519 597 39,100  Climbing FlightAware ADS-B
10:56AM 51.5939 -1.4540 99° East 518 596 39,000 -120 Descending FlightAware ADS-B
10:57AM 51.5818 -1.3388 100° East 518 596 39,000  Level FlightAware ADS-B
10:57AM 51.5688 -1.2138 99° East 519 597 39,000  Level FlightAware ADS-B
10:58AM 51.5560 -1.0926 100° East 519 597 39,000  Level FlightAware ADS-B
10:58AM 51.5440 -0.9796 100° East 520 598 39,000  Level FlightAware ADS-B
10:59AM 51.5316 -0.8650 100° East 519 597 39,000  Level FlightAware ADS-B
10:59AM 51.5192 -0.7507 100° East 520 598 39,000  Level FlightAware ADS-B
11:00AM 51.5063 -0.6340 100° East 520 598 39,000  Level FlightAware ADS-B
11:00AM 51.4936 -0.5196 100° East 519 597 39,000  Level FlightAware ADS-B
11:01AM 51.4809 -0.4069 100° East 519 597 39,000  Level FlightAware ADS-B
11:01AM 51.4680 -0.2918 100° East 520 598 39,000  Level FlightAware ADS-B
11:02AM 51.4541 -0.1717 100° East 519 597 39,000  Level FlightAware ADS-B
11:02AM 51.4407 -0.0546 100° East 519 597 39,000  Level FlightAware ADS-B
11:03AM 51.4277 0.0583 100° East 518 596 39,000  Level FlightAware ADS-B
11:03AM 51.4146 0.1713 100° East 518 596 39,000  Level FlightAware ADS-B
11:04AM 51.4006 0.2894 101° East 517 595 39,000  Level FlightAware ADS-B
11:04AM 51.3856 0.4135 101° East 518 596 39,000  Level FlightAware ADS-B
11:05AM 51.3691 0.5489 101° East 520 598 39,000  Level FlightAware ADS-B
11:06AM 51.3544 0.6703 101° East 520 598 39,000  Level FlightAware ADS-B
11:06AM 51.3403 0.7864 101° East 520 598 39,000 60 Level FlightAware ADS-B
11:07AM 51.3261 0.9009 101° East 520 598 39,100 60 Climbing FlightAware ADS-B
11:07AM 51.3118 1.0167 101° East 519 597 39,100 -120 Level FlightAware ADS-B
11:08AM 51.2974 1.1300 101° East 518 596 39,000 -120 Descending FlightAware ADS-B
11:08AM 51.2831 1.2425 101° East 517 595 39,000  Level FlightAware ADS-B
11:09AM 51.2685 1.3564 102° East 519 597 39,000  Level FlightAware ADS-B
11:09AM 51.2535 1.4734 102° East 519 597 39,000  Level FlightAware ADS-B
11:10AM 51.2370 1.6030 101° East 518 596 39,000  Level FlightAware
11:10AM 51.2150 1.7667 102° East 518 596 39,000  Level FlightAware ADS-B
11:11AM 51.1870 1.9760 102° East 518 596 39,000  Level FlightAware
11:12AM 51.1670 2.1230 102° East 518 596 39,000  Level FlightAware
11:13AM 51.1450 2.2840 102° East 518 596 39,000  Level FlightAware
11:13AM 51.1240 2.4370 102° East 519 597 39,000 -180 Level FlightAware
11:14AM 51.0960 2.5990 105° East 520 598 38,800 -780 Descending FlightAware (KMIA)
11:15AM 51.0510 2.8560 105° East 523 602 37,600 -1,020 Descending FlightAware
11:16AM 51.0250 3.0060 105° East 516 594 37,000 -480 Descending FlightAware
11:17AM 51.0020 3.1340 106° East 509 586 37,000  Level FlightAware
11:17AM 50.9720 3.3000 106° East 511 588 37,000  Level FlightAware
11:18AM 50.9470 3.4400 106° East 512 589 37,000  Level FlightAware
11:19AM 50.9190 3.5950 106° East 515 593 37,000  Level FlightAware
11:19AM 50.8910 3.7490 106° East 518 596 37,000  Level FlightAware
11:20AM 50.8630 3.8970 107° East 518 596 37,000  Level FlightAware
11:21AM 50.8340 4.0570 106° East 518 596 37,000  Level FlightAware
11:22AM 50.8070 4.2000 107° East 513 590 37,000 -660 Level FlightAware
11:22AM 50.7750 4.3690 107° East 507 583 36,100 -1,380 Descending FlightAware
11:23AM 50.7480 4.5090 107° East 501 577 35,100 -1,560 Descending FlightAware
11:24AM 50.7240 4.6320 107° East 494 568 34,200 -1,320 Descending FlightAware
11:24AM 50.6960 4.7800 107° East 484 557 33,400 -900 Descending FlightAware
11:25AM 50.6750 4.8880 107° East 481 554 33,000 -360 Descending FlightAware
11:26AM 50.6460 5.0360 107° East 484 557 33,000 -180 Level FlightAware
11:26AM 50.6160 5.1880 107° East 481 554 32,800 -780 Descending FlightAware
11:27AM 50.5870 5.3340 107° East 472 543 31,900 -1,440 Descending FlightAware
11:28AM 50.5660 5.4340 108° East 465 535 31,000 -1,740 Descending FlightAware
11:28AM 50.5360 5.5850 107° East 453 521 29,700 -1,680 Descending FlightAware
11:29AM 50.5120 5.7060 107° East 443 510 28,600 -1,620 Descending FlightAware
11:30AM 50.4870 5.8260 108° East 431 496 27,600 -1,320 Descending FlightAware
11:30AM 50.4580 5.9630 108° East 424 488 26,800 -1,080 Descending FlightAware
11:31AM 50.4330 6.0910 107° East 417 480 26,000 -1,020 Descending FlightAware
11:32AM 50.4080 6.2080 108° East 416 479 25,400 -840 Descending FlightAware
11:32AM 50.3870 6.3110 108° East 416 479 25,000 -360 Descending FlightAware
11:33AM 50.3760 6.4310 98° East 424 488 25,000 -840 Level FlightAware
11:34AM 50.3850 6.5630 84° East 423 487 23,900 -1,740 Descending FlightAware
11:34AM 50.3650 6.6690 106° East 412 474 22,700 -1,980 Descending FlightAware
11:35AM 50.3360 6.7940 110° East 411 473 21,300 -1,980 Descending FlightAware
11:36AM 50.3030 6.9270 111° Southeast 405 466 19,700 -1,980 Descending FlightAware
11:37AM 50.2760 7.0370 111° Southeast 399 459 18,500 -1,920 Descending FlightAware
11:37AM 50.2530 7.1280 112° Southeast 395 455 17,400 -1,920 Descending FlightAware
11:38AM 50.2240 7.2400 112° Southeast 390 449 16,100 -1,920 Descending FlightAware
11:39AM 50.1960 7.3540 111° Southeast 377 434 14,700 -1,800 Descending FlightAware
11:39AM 50.1720 7.4450 112° Southeast 361 415 13,700 -1,380 Descending FlightAware
11:40AM 50.1480 7.5380 112° Southeast 337 388 13,000 -540 Descending FlightAware
11:41AM 50.1250 7.6290 111° Southeast 335 386 13,000  Level FlightAware
11:41AM 50.1070 7.7170 108° East 337 388 13,000  Level FlightAware
11:42AM 50.1020 7.8070 95° East 341 392 13,000  Level FlightAware
11:43AM 50.0930 7.9210 97° East 341 392 13,000  Level FlightAware
11:43AM 50.0880 8.0170 95° East 342 394 13,000  Level FlightAware
11:44AM 50.0820 8.1270 95° East 341 392 13,000  Level FlightAware
11:45AM 50.0770 8.2300 94° East 342 394 13,000  Level FlightAware
11:45AM 50.0710 8.3310 95° East 343 395 13,000  Level FlightAware
11:46AM 50.0650 8.4440 95° East 343 395 13,000  Level FlightAware
11:47AM 50.0510 8.5210 106° East 313 360 13,000  Level FlightAware
11:47AM 50.0350 8.6020 107° East 311 358 13,000 -120 Level FlightAware
11:48AM 50.0150 8.7010 107° East 311 358 12,900 -720 Descending FlightAware
11:49AM 49.9970 8.7880 108° East 304 350 12,000 -1,440 Descending FlightAware
11:49AM 49.9940 8.8210 98° East 306 352 11,600 -1,740 Descending FlightAware
11:49AM 50.0010 8.8570 73° East 304 350 11,100 -1,500 Descending FlightAware
11:50AM 50.0190 8.9400 71° East 298 343 10,200 -1,260 Descending FlightAware
11:50AM 50.0290 8.9870 72° East 291 335 9,800 -1,020 Descending FlightAware
11:51AM 50.0430 9.0460 70° East 290 334 9,300 -900 Descending FlightAware
11:51AM 50.0550 9.0970 70° East 288 331 9,000 -360 Descending FlightAware
11:52AM 50.0660 9.1450 70° East 286 329 9,000 -480 Level FlightAware
11:52AM 50.0800 9.2040 70° East 285 328 8,600 -1,080 Descending FlightAware
11:52AM 50.0850 9.2190 63° Northeast 285 328 8,300 -1,620 Descending FlightAware
11:53AM 50.1030 9.2400 37° Northeast 285 328 7,900 -1,200 Descending FlightAware
11:53AM 50.1200 9.2460 13° North 274 315 7,700 -840 Descending FlightAware
11:53AM 50.1450 9.2310 339° North 259 298 7,400 -900 Descending FlightAware
11:53AM 50.1510 9.2190 308° West 244 281 7,200 -1,560 Descending FlightAware
11:54AM 50.1560 9.1930 287° West 246 283 6,700 -1,500 Descending FlightAware
11:54AM 50.1570 9.1370 272° West 243 280 6,100 -1,260 Descending FlightAware
11:55AM 50.1580 9.0960 272° West 240 276 5,600 -1,380 Descending FlightAware
11:55AM 50.1490 9.0430 255° West 237 273 4,900 -1,260 Descending FlightAware
11:55AM 50.1450 9.0270 249° West 235 270 4,800 -900 Descending FlightAware
11:56AM 50.1270 8.9560 248° West 236 272 4,100 -900 Descending FlightAware
11:56AM 50.1220 8.9320 252° West 241 277 3,900 -300 Descending FlightAware
11:57AM 50.1120 8.8910 249° West 233 268 3,900  Level FlightAware
11:57AM 50.1020 8.8460 251° West 212 244 3,900 -480 Level FlightAware
11:58AM 50.0940 8.8110 250° West 200 230 3,500 -1,080 Descending FlightAware
11:58AM 50.0840 8.7730 248° West 179 206 2,900 -1,200 Descending FlightAware
11:59AM 50.0760 8.7370 251° West 171 197 2,300 -1,140 Descending FlightAware
11:59AM 50.0720 8.7200 250° West 157 181 2,100 -900 Descending FlightAware
11:59AM 50.0660 8.6940 250° West 148 170 1,700 -780 Descending FlightAware
12:00PM 50.0590 8.6660 249° West 139 160 1,400 -660 Descending FlightAware
12:00PM 50.0530 8.6420 249° West 138 159 1,100 -720 Descending FlightAware
12:00PM 50.0510 8.6340 249° West 138 159 1,000 -780 Descending FlightAware
12:01PM 50.0410 8.5910 250° West 142 163 400 -720 Descending FlightAware
12:01PM 50.0380 8.5780 250° West 143 165 300 -180 Descending FlightAware
12:02PM 50.0330 8.5560 251° West 143 165 300  Level FlightAware
12:04PM 50.0167 8.5667 111° Southeast  Level FlightAware Approximate